Time;durP1;ratioP1;P1;durP2;ratioP2;P2;SDS_P1;SDS_P2;PMS_P1;PMS_P2;Temp;Humidity;BMP_temperature;BMP_pressure;BME280_temperature;BME280_humidity;BME280_pressure;Samples;Min_cycle;Max_cycle;Signal;HPM_P1;HPM_P2
2022/06/25 00:01:47;;;;;;;3.80;0.45;;;15.40;99.90;;;;;;5026596;28;20030;-68
2022/06/25 00:07:00;;;;;;;1.55;0.50;;;15.60;99.90;;;;;;5029070;28;20028;-68
2022/06/25 00:09:28;;;;;;;3.35;0.50;;;15.60;99.90;;;;;;5021667;28;20071;-67
2022/06/25 00:14:40;;;;;;;2.80;0.63;;;15.90;99.90;;;;;;5025980;28;20047;-67
2022/06/25 00:17:08;;;;;;;2.78;0.57;;;15.90;99.90;;;;;;5025370;28;20052;-68
2022/06/25 00:19:35;;;;;;;1.88;0.60;;;15.90;99.90;;;;;;5017520;28;20038;-68
2022/06/25 00:22:03;;;;;;;3.20;0.70;;;15.80;99.90;;;;;;5024749;28;20375;-67
2022/06/25 00:24:30;;;;;;;3.60;0.73;;;16.00;99.90;;;;;;5024968;28;20029;-68
2022/06/25 00:26:57;;;;;;;2.45;0.57;;;16.20;99.90;;;;;;5025566;28;20036;-68
2022/06/25 00:29:24;;;;;;;3.28;0.80;;;16.20;99.90;;;;;;5029839;28;20033;-68
2022/06/25 00:31:52;;;;;;;4.40;0.68;;;16.40;99.90;;;;;;5032043;28;20424;-67
2022/06/25 00:34:19;;;;;;;7.97;0.50;;;16.40;99.90;;;;;;5018452;28;20060;-67
2022/06/25 00:36:47;;;;;;;2.50;1.00;;;16.40;99.90;;;;;;5016563;28;20041;-68
2022/06/25 00:39:14;;;;;;;1.67;0.50;;;16.50;99.90;;;;;;5035579;28;20533;-67
2022/06/25 00:41:41;;;;;;;4.60;0.50;;;16.50;99.90;;;;;;5015639;28;20026;-68
2022/06/25 00:44:09;;;;;;;1.77;0.40;;;16.50;99.90;;;;;;5020878;28;20041;-68
2022/06/25 00:46:37;;;;;;;2.90;0.55;;;16.50;99.90;;;;;;5019305;28;20476;-68
2022/06/25 00:49:05;;;;;;;2.90;0.60;;;16.60;99.90;;;;;;5025030;28;20025;-68
2022/06/25 00:51:40;;;;;;;1.23;0.32;;;16.70;99.90;;;;;;5025446;28;20489;-68
2022/06/25 00:54:10;;;;;;;2.08;0.52;;;16.70;99.90;;;;;;5031599;28;20075;-68
2022/06/25 00:56:41;;;;;;;3.45;0.85;;;16.70;99.90;;;;;;5024352;28;20065;-68
2022/06/25 00:59:10;;;;;;;1.90;0.50;;;17.00;99.90;;;;;;5026312;28;20517;-68
2022/06/25 01:01:37;;;;;;;2.55;0.40;;;17.00;99.90;;;;;;5025744;28;20029;-68
2022/06/25 01:04:05;;;;;;;1.15;0.45;;;17.00;99.90;;;;;;5016915;28;20025;-68
2022/06/25 01:06:32;;;;;;;0.90;0.30;;;17.10;99.90;;;;;;5023020;28;20060;-68
2022/06/25 01:08:59;;;;;;;6.65;0.90;;;17.10;99.90;;;;;;5038728;28;20091;-68
2022/06/25 01:11:27;;;;;;;4.18;0.60;;;16.90;99.90;;;;;;5028876;28;20493;-68
2022/06/25 01:13:54;;;;;;;2.05;0.52;;;17.00;99.90;;;;;;5017113;28;20114;-68
2022/06/25 01:16:22;;;;;;;2.20;0.38;;;17.10;99.90;;;;;;5026898;28;20034;-68
2022/06/25 01:18:50;;;;;;;3.25;0.45;;;17.20;99.90;;;;;;5031826;28;20032;-68
2022/06/25 01:21:18;;;;;;;1.85;0.52;;;17.30;99.90;;;;;;5037024;28;20097;-68
2022/06/25 01:23:45;;;;;;;2.20;0.63;;;17.50;99.90;;;;;;5021581;28;20029;-68
2022/06/25 01:26:12;;;;;;;2.35;0.80;;;17.50;99.90;;;;;;5018895;28;20025;-68
2022/06/25 01:28:39;;;;;;;1.77;0.50;;;17.50;99.90;;;;;;5035313;28;20045;-67
2022/06/25 01:31:07;;;;;;;0.93;0.30;;;17.50;99.90;;;;;;5026767;28;20075;-67
2022/06/25 01:33:34;;;;;;;3.15;0.40;;;17.60;99.90;;;;;;5027282;28;20522;-68
2022/06/25 01:36:02;;;;;;;1.57;0.40;;;17.60;99.90;;;;;;5025785;28;20029;-67
2022/06/25 01:38:29;;;;;;;2.55;0.35;;;17.60;99.90;;;;;;5025407;28;20057;-67
2022/06/25 01:40:56;;;;;;;2.58;0.50;;;17.70;99.90;;;;;;5025878;28;20049;-68
2022/06/25 01:43:23;;;;;;;3.28;1.00;;;17.70;99.90;;;;;;5021321;28;20030;-68
2022/06/25 01:45:51;;;;;;;2.47;0.50;;;17.90;99.90;;;;;;5013386;28;20026;-68
2022/06/25 01:48:18;;;;;;;5.15;0.88;;;18.10;99.90;;;;;;5013875;28;20391;-68
2022/06/25 01:50:45;;;;;;;2.38;0.43;;;18.20;99.90;;;;;;5014104;28;20079;-68
2022/06/25 01:53:12;;;;;;;1.00;0.65;;;18.30;99.90;;;;;;5012786;28;20087;-68
2022/06/25 01:55:40;;;;;;;3.38;0.40;;;18.40;99.90;;;;;;5025047;28;20038;-68
2022/06/25 01:58:07;;;;;;;7.55;0.43;;;18.50;99.90;;;;;;5014948;28;20025;-68
2022/06/25 02:00:35;;;;;;;4.60;0.45;;;18.40;99.90;;;;;;5026029;28;20132;-68
2022/06/25 02:03:02;;;;;;;1.92;0.45;;;18.30;99.90;;;;;;5013015;28;20018;-68
2022/06/25 02:08:17;;;;;;;2.10;0.70;;;18.40;99.90;;;;;;5032744;28;20477;-68
2022/06/25 02:10:48;;;;;;;2.60;0.50;;;18.50;99.90;;;;;;5017699;28;20474;-68
2022/06/25 02:13:16;;;;;;;1.33;0.43;;;18.70;99.90;;;;;;5021869;28;20095;-68
2022/06/25 02:15:44;;;;;;;2.72;0.40;;;19.00;99.90;;;;;;5019889;28;20030;-68
2022/06/25 02:18:11;;;;;;;1.90;0.35;;;18.90;99.90;;;;;;5012929;28;20045;-68
2022/06/25 02:20:40;;;;;;;1.88;0.55;;;19.10;99.90;;;;;;5012942;28;20029;-68
2022/06/25 02:23:08;;;;;;;3.75;0.40;;;19.60;99.90;;;;;;5013045;28;20470;-68
2022/06/25 02:25:36;;;;;;;2.88;0.47;;;20.00;99.90;;;;;;5013396;28;20136;-68
2022/06/25 02:28:04;;;;;;;1.52;0.40;;;20.50;99.90;;;;;;5013184;28;20024;-68
2022/06/25 02:30:32;;;;;;;0.98;0.40;;;20.30;99.80;;;;;;5016018;28;20029;-67
2022/06/25 02:32:59;;;;;;;0.82;0.20;;;20.40;99.70;;;;;;5024453;28;20102;-67
2022/06/25 02:35:27;;;;;;;0.88;0.40;;;20.20;99.90;;;;;;5019267;28;20018;-67
2022/06/25 02:37:54;;;;;;;1.88;0.50;;;21.00;99.90;;;;;;5029909;28;20083;-67
2022/06/25 02:40:21;;;;;;;4.18;1.27;;;21.00;99.30;;;;;;5038614;28;20037;-66
2022/06/25 02:42:49;;;;;;;5.15;0.60;;;21.50;99.40;;;;;;5032169;28;20037;-66
2022/06/25 02:45:16;;;;;;;4.43;0.80;;;21.70;99.10;;;;;;5031261;28;20029;-65
2022/06/25 02:47:44;;;;;;;1.45;0.50;;;21.10;99.10;;;;;;5029699;28;20026;-66
2022/06/25 02:50:11;;;;;;;2.78;0.70;;;19.70;99.80;;;;;;5021554;28;20068;-66
2022/06/25 02:52:39;;;;;;;2.17;0.40;;;19.50;99.90;;;;;;5017673;28;20029;-66
2022/06/25 02:55:07;;;;;;;2.47;0.75;;;20.00;99.90;;;;;;5019515;28;20042;-66
2022/06/25 03:00:20;;;;;;;3.90;0.60;;;20.70;99.90;;;;;;5030467;28;20044;-66
2022/06/25 03:02:47;;;;;;;3.30;0.80;;;21.00;99.50;;;;;;5028839;28;20595;-68
2022/06/25 03:05:14;;;;;;;2.05;0.30;;;20.30;99.80;;;;;;5022504;28;20029;-68
2022/06/25 03:07:42;;;;;;;3.70;0.60;;;19.80;99.80;;;;;;5012064;28;20038;-68
2022/06/25 03:10:09;;;;;;;8.55;1.15;;;19.70;99.10;;;;;;5012928;28;20038;-68
2022/06/25 03:12:36;;;;;;;2.10;0.40;;;19.90;99.80;;;;;;5015533;28;20022;-67
2022/06/25 03:15:04;;;;;;;5.40;1.13;;;19.90;99.20;;;;;;5022795;28;20025;-69
2022/06/25 03:17:31;;;;;;;2.60;0.60;;;20.10;99.40;;;;;;5016336;28;20084;-69
2022/06/25 03:19:58;;;;;;;1.90;0.65;;;20.50;99.40;;;;;;5015514;28;20482;-69
2022/06/25 03:22:26;;;;;;;0.95;0.30;;;20.30;99.10;;;;;;5030466;28;20030;-69
2022/06/25 03:24:53;;;;;;;3.17;0.50;;;20.10;99.10;;;;;;5015854;28;20053;-69
2022/06/25 03:27:20;;;;;;;2.38;0.40;;;19.80;99.90;;;;;;5014894;28;20504;-69
2022/06/25 03:29:47;;;;;;;3.47;0.60;;;20.00;99.70;;;;;;5022466;28;20026;-69
2022/06/25 03:32:15;;;;;;;1.48;0.57;;;19.70;99.70;;;;;;5034318;28;20028;-69
2022/06/25 03:34:42;;;;;;;1.95;0.20;;;19.30;99.90;;;;;;5032395;28;20044;-69
2022/06/25 03:37:09;;;;;;;1.85;0.77;;;19.20;99.40;;;;;;5018974;28;20030;-69
2022/06/25 03:39:36;;;;;;;0.88;0.35;;;18.80;99.90;;;;;;5015781;28;20112;-69
2022/06/25 03:42:04;;;;;;;1.85;0.20;;;19.00;99.90;;;;;;5029399;28;20108;-69
2022/06/25 03:44:31;;;;;;;0.93;0.20;;;19.30;99.90;;;;;;5016496;28;20569;-69
2022/06/25 03:46:58;;;;;;;2.65;0.40;;;19.50;99.90;;;;;;5016215;28;20065;-69
2022/06/25 03:49:26;;;;;;;2.40;0.40;;;19.50;99.90;;;;;;5015514;28;20017;-69
2022/06/25 03:51:53;;;;;;;1.10;0.30;;;20.30;99.10;;;;;;5016446;28;20030;-69
2022/06/25 03:54:20;;;;;;;4.25;0.30;;;20.30;99.60;;;;;;5015144;28;20131;-69
2022/06/25 03:56:48;;;;;;;3.13;0.50;;;19.90;99.40;;;;;;5015029;28;20498;-69
2022/06/25 03:59:15;;;;;;;1.40;0.40;;;19.60;99.90;;;;;;5015246;28;20042;-69
2022/06/25 04:01:42;;;;;;;3.45;0.57;;;19.60;99.90;;;;;;5027797;28;20026;-69
2022/06/25 04:04:10;;;;;;;2.08;0.50;;;19.40;99.90;;;;;;5024071;28;20479;-69
2022/06/25 04:06:37;;;;;;;1.27;0.28;;;19.30;99.90;;;;;;5014801;28;20033;-69
2022/06/25 04:09:04;;;;;;;1.85;0.30;;;19.20;99.70;;;;;;5013281;28;20076;-69
2022/06/25 04:11:31;;;;;;;0.73;0.30;;;19.20;99.70;;;;;;5014388;28;20048;-69
2022/06/25 04:13:59;;;;;;;1.33;0.73;;;19.20;99.70;;;;;;5014786;28;20532;-68
2022/06/25 04:16:26;;;;;;;2.25;0.30;;;19.30;99.60;;;;;;5025734;28;20029;-69
2022/06/25 04:18:54;;;;;;;0.82;0.20;;;19.30;99.70;;;;;;5034402;28;20029;-69
2022/06/25 04:21:21;;;;;;;1.58;0.40;;;19.30;99.70;;;;;;5026948;28;20030;-69
2022/06/25 04:23:48;;;;;;;2.28;0.35;;;19.30;99.70;;;;;;5022660;28;20049;-69
2022/06/25 04:26:16;;;;;;;1.13;0.30;;;19.40;99.90;;;;;;5028468;28;20445;-69
2022/06/25 04:31:28;;;;;;;1.65;0.20;;;19.20;99.80;;;;;;5021177;28;20091;-69
2022/06/25 04:33:56;;;;;;;1.73;0.17;;;19.30;99.80;;;;;;5014783;28;20034;-69
2022/06/25 04:36:23;;;;;;;0.77;0.30;;;19.30;99.50;;;;;;5020010;28;20046;-68
2022/06/25 04:38:51;;;;;;;3.45;0.52;;;19.30;99.50;;;;;;5031466;28;20088;-68
2022/06/25 04:41:18;;;;;;;0.70;0.20;;;19.30;99.50;;;;;;5024158;28;20033;-68
2022/06/25 04:43:45;;;;;;;1.00;0.10;;;19.20;99.40;;;;;;5025259;28;20398;-69
2022/06/25 04:46:13;;;;;;;0.98;0.20;;;19.30;99.70;;;;;;5020859;28;20053;-69
2022/06/25 04:48:40;;;;;;;2.13;0.45;;;19.30;99.10;;;;;;5024003;28;20026;-68
2022/06/25 04:51:07;;;;;;;1.42;0.20;;;19.30;99.00;;;;;;5021546;28;20037;-69
2022/06/25 04:53:54;;;;;;;1.15;0.10;;;19.30;99.30;;;;;;5029895;28;21057;-69
2022/06/25 04:56:26;;;;;;;1.08;0.20;;;19.20;99.70;;;;;;5019783;28;20041;-69
2022/06/25 04:58:54;;;;;;;1.63;0.20;;;19.20;99.60;;;;;;5035669;28;20393;-69
2022/06/25 05:01:23;;;;;;;0.57;0.30;;;19.10;99.80;;;;;;5032649;28;20033;-69
2022/06/25 05:03:50;;;;;;;1.38;0.10;;;19.00;99.80;;;;;;5017995;28;20080;-69
2022/06/25 05:06:18;;;;;;;1.13;0.20;;;18.90;99.90;;;;;;5020846;28;20104;-68
2022/06/25 05:08:45;;;;;;;2.72;0.40;;;18.90;99.90;;;;;;5023572;28;20045;-68
2022/06/25 05:11:12;;;;;;;1.10;0.30;;;19.00;99.90;;;;;;5018806;28;20056;-69
2022/06/25 05:13:40;;;;;;;1.40;0.30;;;19.00;99.90;;;;;;5018749;28;20076;-69
2022/06/25 05:16:07;;;;;;;1.80;0.60;;;18.90;99.90;;;;;;5023736;28;20432;-67
2022/06/25 05:18:34;;;;;;;1.23;0.30;;;18.80;99.90;;;;;;5022729;28;20108;-69
2022/06/25 05:21:01;;;;;;;1.58;0.50;;;18.70;99.90;;;;;;5019464;28;20069;-68
2022/06/25 05:23:29;;;;;;;1.20;0.30;;;18.80;99.90;;;;;;5019107;28;20029;-69
2022/06/25 05:25:56;;;;;;;1.00;0.32;;;18.80;99.90;;;;;;5029087;28;20056;-68
2022/06/25 05:28:23;;;;;;;3.00;0.30;;;18.80;99.90;;;;;;5027682;28;20021;-68
2022/06/25 05:30:50;;;;;;;1.58;0.20;;;18.70;99.90;;;;;;5013693;28;20030;-67
2022/06/25 05:33:18;;;;;;;0.70;0.20;;;18.60;99.90;;;;;;5039449;28;20442;-68
2022/06/25 05:35:45;;;;;;;1.83;0.20;;;18.50;99.90;;;;;;5025943;28;20030;-68
2022/06/25 05:38:12;;;;;;;3.10;0.40;;;18.50;99.90;;;;;;5032661;28;20022;-68
2022/06/25 05:40:39;;;;;;;1.83;0.30;;;18.40;99.90;;;;;;5020725;28;20072;-68
2022/06/25 05:43:07;;;;;;;0.57;0.20;;;18.50;99.90;;;;;;5020602;28;20026;-68
2022/06/25 05:45:34;;;;;;;2.83;0.20;;;18.60;99.90;;;;;;5016278;28;20028;-68
2022/06/25 05:48:02;;;;;;;1.98;0.30;;;18.60;99.90;;;;;;5021713;28;20486;-68
2022/06/25 05:50:29;;;;;;;1.58;0.30;;;18.60;99.90;;;;;;5017960;28;20033;-68
2022/06/25 05:52:56;;;;;;;0.73;0.20;;;18.50;99.90;;;;;;5040626;28;20108;-69
2022/06/25 05:55:25;;;;;;;3.28;0.63;;;18.60;99.90;;;;;;5026619;28;20658;-68
2022/06/25 05:57:52;;;;;;;1.95;0.17;;;18.40;99.90;;;;;;5020129;28;20030;-68
2022/06/25 06:00:20;;;;;;;0.82;0.20;;;18.40;99.90;;;;;;5020186;28;20029;-67
2022/06/25 06:02:47;;;;;;;4.03;0.28;;;18.40;99.90;;;;;;5023548;28;20025;-68
2022/06/25 06:05:14;;;;;;;1.58;0.28;;;18.30;99.90;;;;;;5025666;28;20029;-67
2022/06/25 06:07:41;;;;;;;5.03;0.68;;;18.30;99.90;;;;;;5023035;28;20033;-68
2022/06/25 06:10:09;;;;;;;1.15;0.47;;;18.30;99.90;;;;;;5023884;28;20036;-68
2022/06/25 06:12:36;;;;;;;1.20;0.40;;;18.40;99.90;;;;;;5025411;28;20021;-68
2022/06/25 06:15:04;;;;;;;1.92;0.30;;;18.20;99.90;;;;;;5022820;28;20028;-68
2022/06/25 06:17:32;;;;;;;2.17;0.70;;;18.20;99.90;;;;;;5018913;28;20029;-67
2022/06/25 06:19:59;;;;;;;2.92;0.30;;;18.20;99.90;;;;;;5022015;28;20397;-67
2022/06/25 06:22:27;;;;;;;1.42;0.25;;;18.10;99.90;;;;;;5013226;28;20594;-68
2022/06/25 06:24:54;;;;;;;0.60;0.30;;;18.10;99.90;;;;;;5029850;28;20104;-68
2022/06/25 06:27:22;;;;;;;1.67;0.30;;;18.10;99.90;;;;;;5028682;28;20025;-67
2022/06/25 06:29:49;;;;;;;0.85;0.20;;;18.00;99.90;;;;;;5032003;28;20393;-68
2022/06/25 06:32:16;;;;;;;0.70;0.20;;;17.90;99.90;;;;;;5020804;28;20021;-68
2022/06/25 06:34:45;;;;;;;2.63;0.80;;;17.80;99.90;;;;;;5024204;28;20032;-68
2022/06/25 06:37:12;;;;;;;3.60;0.47;;;17.60;99.90;;;;;;5025632;28;20131;-68
2022/06/25 06:39:39;;;;;;;0.75;0.40;;;17.50;99.90;;;;;;5026016;28;20022;-68
2022/06/25 06:42:08;;;;;;;2.05;0.40;;;17.50;99.90;;;;;;5026381;28;20014;-68
2022/06/25 06:44:35;;;;;;;1.70;0.40;;;17.40;99.90;;;;;;5019283;28;20026;-68
2022/06/25 06:47:03;;;;;;;2.90;0.95;;;17.40;99.90;;;;;;5028633;28;20191;-69
2022/06/25 06:49:30;;;;;;;1.63;0.70;;;17.30;99.90;;;;;;5035434;28;20071;-68
2022/06/25 06:51:57;;;;;;;1.38;0.60;;;17.20;99.90;;;;;;5033124;28;20060;-68
2022/06/25 06:54:25;;;;;;;11.52;7.47;;;17.10;99.90;;;;;;5030801;28;20813;-68
2022/06/25 06:56:53;;;;;;;4.38;2.33;;;17.00;99.90;;;;;;5030446;28;20026;-67
2022/06/25 06:59:20;;;;;;;1.63;0.40;;;17.10;99.90;;;;;;5015355;28;20091;-68
2022/06/25 07:01:47;;;;;;;1.20;0.50;;;17.10;99.90;;;;;;5026855;28;20053;-67
2022/06/25 07:04:15;;;;;;;1.80;0.70;;;17.00;99.90;;;;;;5035785;28;20038;-68
2022/06/25 07:06:42;;;;;;;3.00;0.77;;;17.10;99.90;;;;;;5025981;28;20058;-68
2022/06/25 07:09:10;;;;;;;2.28;0.77;;;17.00;99.90;;;;;;5033810;28;20432;-68
2022/06/25 07:11:37;;;;;;;0.80;0.30;;;16.90;99.90;;;;;;5030681;28;20030;-67
2022/06/25 07:14:05;;;;;;;2.15;0.60;;;16.80;99.90;;;;;;5023683;28;20544;-68
2022/06/25 07:16:34;;;;;;;2.03;1.00;;;16.60;99.90;;;;;;5043581;28;20036;-68
2022/06/25 07:19:02;;;;;;;3.47;1.40;;;16.40;99.90;;;;;;5041130;28;20026;-68
2022/06/25 07:21:30;;;;;;;3.00;1.80;;;16.20;99.90;;;;;;5023675;28;20033;-68
2022/06/25 07:23:58;;;;;;;4.40;2.17;;;16.10;99.90;;;;;;5033902;28;20486;-69
2022/06/25 07:26:26;;;;;;;5.65;1.00;;;15.90;99.90;;;;;;5046283;28;20056;-68
2022/06/25 07:28:55;;;;;;;1.83;0.60;;;16.10;99.90;;;;;;5029889;28;20503;-68
2022/06/25 07:31:22;;;;;;;2.63;0.85;;;16.30;99.90;;;;;;5023389;28;20025;-68
2022/06/25 07:33:50;;;;;;;2.45;0.70;;;16.50;99.90;;;;;;5034717;28;20441;-68
2022/06/25 07:36:21;;;;;;;3.60;0.80;;;16.40;99.90;;;;;;5032738;28;20030;-68
2022/06/25 07:38:48;;;;;;;1.63;0.70;;;16.40;99.90;;;;;;5022099;28;20065;-68
2022/06/25 07:41:16;;;;;;;3.05;0.70;;;16.40;99.90;;;;;;5029636;28;20028;-68
2022/06/25 07:43:43;;;;;;;1.80;1.00;;;16.20;99.90;;;;;;5017920;28;20033;-68
2022/06/25 07:46:11;;;;;;;2.33;1.08;;;15.90;99.90;;;;;;5051222;28;20041;-67
2022/06/25 07:48:39;;;;;;;2.70;1.00;;;15.70;99.90;;;;;;5054596;28;20021;-68
2022/06/25 07:53:52;;;;;;;3.80;1.10;;;15.50;99.90;;;;;;5025764;28;20433;-67
2022/06/25 07:56:20;;;;;;;3.65;1.92;;;15.40;99.90;;;;;;5032761;28;20021;-67
2022/06/25 07:58:48;;;;;;;3.10;2.22;;;15.30;99.90;;;;;;5032543;28;20529;-67
2022/06/25 08:01:18;;;;;;;4.78;3.72;;;15.30;99.90;;;;;;5036985;28;20486;-67
2022/06/25 08:03:45;;;;;;;5.38;3.05;;;15.20;99.90;;;;;;5027970;28;20026;-69
2022/06/25 08:06:13;;;;;;;4.78;2.00;;;15.20;99.90;;;;;;5036133;28;20033;-68
2022/06/25 08:08:41;;;;;;;3.90;1.95;;;15.20;99.90;;;;;;5027064;28;20021;-68
2022/06/25 08:11:09;;;;;;;6.03;2.00;;;15.30;99.90;;;;;;5031901;28;20049;-69
2022/06/25 08:13:37;;;;;;;4.03;2.15;;;15.30;99.90;;;;;;5053126;28;20020;-69
2022/06/25 08:16:09;;;;;;;4.03;1.70;;;15.50;99.90;;;;;;5041105;28;20451;-69
2022/06/25 08:18:38;;;;;;;3.30;1.80;;;15.80;99.90;;;;;;5034301;28;20029;-68
2022/06/25 08:21:07;;;;;;;2.22;1.52;;;15.80;99.90;;;;;;5053285;28;20112;-68
2022/06/25 08:23:35;;;;;;;4.10;1.48;;;15.80;99.90;;;;;;5045804;28;20030;-68
2022/06/25 08:26:02;;;;;;;4.00;1.75;;;15.90;99.90;;;;;;5030141;28;20475;-68
2022/06/25 08:28:30;;;;;;;3.83;2.00;;;15.90;99.90;;;;;;5042058;28;20033;-68
2022/06/25 08:30:58;;;;;;;4.80;2.40;;;15.90;99.90;;;;;;5053179;28;20406;-68
2022/06/25 08:33:26;;;;;;;3.92;1.83;;;15.90;99.90;;;;;;5048357;28;20026;-68
2022/06/25 08:35:53;;;;;;;4.82;2.10;;;15.90;99.90;;;;;;5034343;28;20088;-69
2022/06/25 08:38:21;;;;;;;6.03;2.63;;;15.90;99.90;;;;;;5034782;28;20095;-68
2022/06/25 08:40:49;;;;;;;9.73;3.08;;;15.90;99.90;;;;;;5044413;28;20029;-68
2022/06/25 08:43:16;;;;;;;5.13;2.45;;;15.90;99.90;;;;;;5046610;28;20033;-68
2022/06/25 08:45:45;;;;;;;4.95;2.50;;;15.80;99.90;;;;;;5027845;28;20028;-68
2022/06/25 08:48:18;;;;;;;7.20;2.92;;;15.80;99.90;;;;;;5025558;28;20030;-67
2022/06/25 08:50:48;;;;;;;6.82;3.80;;;15.70;99.90;;;;;;5032522;28;20053;-67
2022/06/25 08:53:16;;;;;;;6.70;3.35;;;15.60;99.90;;;;;;5033709;28;20102;-67
2022/06/25 08:55:48;;;;;;;6.15;2.88;;;15.60;99.90;;;;;;5032851;28;20045;-67
2022/06/25 08:58:16;;;;;;;6.97;3.20;;;15.50;99.90;;;;;;5023073;28;20450;-67
2022/06/25 09:00:46;;;;;;;4.75;2.40;;;15.40;99.90;;;;;;5016003;28;20026;-67
2022/06/25 09:03:13;;;;;;;6.75;2.60;;;15.30;99.90;;;;;;5019602;28;20026;-68
2022/06/25 09:05:43;;;;;;;4.85;3.13;;;15.30;99.90;;;;;;5017132;28;20037;-68
2022/06/25 09:08:15;;;;;;;6.25;3.08;;;15.20;99.90;;;;;;5012763;28;20041;-68
2022/06/25 09:10:45;;;;;;;9.00;4.07;;;15.20;99.90;;;;;;5025107;28;20482;-68
2022/06/25 09:13:14;;;;;;;7.28;4.00;;;15.20;99.90;;;;;;5016928;28;20021;-68
2022/06/25 09:15:46;;;;;;;6.10;3.67;;;15.20;99.90;;;;;;5030683;28;20164;-68
2022/06/25 09:18:16;;;;;;;9.35;4.43;;;15.20;99.90;;;;;;5025890;28;20029;-68
2022/06/25 09:20:59;;;;;;;10.48;4.45;;;15.20;99.90;;;;;;5025399;28;20038;-68
2022/06/25 09:23:30;;;;;;;10.07;4.32;;;15.10;99.90;;;;;;5011584;28;20038;-68
2022/06/25 09:26:05;;;;;;;6.93;4.60;;;15.10;99.90;;;;;;5022310;28;20034;-68
2022/06/25 09:28:39;;;;;;;9.27;4.20;;;15.10;99.90;;;;;;5011984;28;20030;-68
2022/06/25 09:31:07;;;;;;;7.05;4.78;;;15.00;99.90;;;;;;5012938;28;20108;-69
2022/06/25 09:33:38;;;;;;;11.02;6.28;;;15.00;99.90;;;;;;5011841;28;20045;-68
2022/06/25 09:36:09;;;;;;;9.93;5.85;;;14.90;99.90;;;;;;5017845;28;20033;-68
2022/06/25 09:38:51;;;;;;;13.70;5.72;;;14.90;99.90;;;;;;5022517;28;20509;-68
2022/06/25 09:41:19;;;;;;;10.23;4.28;;;14.90;99.90;;;;;;5008536;28;20045;-68
2022/06/25 09:43:47;;;;;;;8.57;4.43;;;14.90;99.90;;;;;;5011533;28;20036;-69
2022/06/25 09:46:15;;;;;;;6.72;4.00;;;14.80;99.90;;;;;;5018932;28;20072;-68
2022/06/25 09:48:43;;;;;;;10.13;4.57;;;14.80;99.90;;;;;;5016054;28;20406;-68
2022/06/25 09:51:13;;;;;;;7.55;4.80;;;14.80;99.90;;;;;;5020154;28;20450;-68
2022/06/25 09:54:01;;;;;;;7.28;3.95;;;14.80;99.90;;;;;;5026626;28;20446;-68
2022/06/25 09:56:32;;;;;;;9.45;4.25;;;14.70;99.90;;;;;;5027353;28;20116;-68
2022/06/25 09:59:01;;;;;;;6.72;3.75;;;14.70;99.90;;;;;;5012338;28;20061;-69
2022/06/25 10:01:33;;;;;;;6.80;3.92;;;14.60;99.90;;;;;;5018726;28;20038;-68
2022/06/25 10:04:04;;;;;;;7.10;3.90;;;14.60;99.90;;;;;;5033776;28;20030;-68
2022/06/25 10:06:37;;;;;;;5.75;3.92;;;14.50;99.90;;;;;;5021398;28;20026;-68
2022/06/25 10:09:06;;;;;;;8.82;3.92;;;14.40;99.90;;;;;;5015053;28;20052;-68
2022/06/25 10:11:35;;;;;;;10.73;4.10;;;14.30;99.90;;;;;;5020305;28;20026;-68
2022/06/25 10:14:03;;;;;;;9.15;4.03;;;14.20;99.90;;;;;;5012509;28;20101;-67
2022/06/25 10:16:31;;;;;;;7.80;4.28;;;14.20;99.90;;;;;;5025895;28;20109;-68
2022/06/25 10:19:00;;;;;;;7.68;3.50;;;14.10;99.90;;;;;;5027480;28;20075;-68
2022/06/25 10:21:28;;;;;;;7.50;4.03;;;14.00;99.90;;;;;;5035047;28;20028;-68
2022/06/25 10:24:04;;;;;;;7.70;4.50;;;13.90;99.90;;;;;;5031593;28;20624;-67
2022/06/25 10:26:34;;;;;;;5.93;3.80;;;13.90;99.90;;;;;;5026953;28;20091;-67
2022/06/25 10:29:04;;;;;;;6.28;4.38;;;13.90;99.90;;;;;;5016955;28;20050;-67
2022/06/25 10:31:35;;;;;;;6.67;4.23;;;13.90;99.90;;;;;;5029486;28;20505;-67
2022/06/25 10:34:04;;;;;;;8.50;4.90;;;14.00;99.90;;;;;;5030306;28;20079;-67
2022/06/25 10:36:42;;;;;;;6.78;4.70;;;14.00;99.90;;;;;;5030015;28;20026;-68
2022/06/25 10:39:28;;;;;;;6.85;4.40;;;14.00;99.90;;;;;;5012981;28;20072;-68
2022/06/25 10:45:08;;;;;;;8.55;4.70;;;14.00;99.90;;;;;;5012226;28;20120;-68
2022/06/25 10:47:50;;;;;;;9.50;4.88;;;14.00;99.90;;;;;;5026911;28;20072;-68
2022/06/25 10:50:27;;;;;;;8.70;4.90;;;14.00;99.90;;;;;;5036476;28;20060;-69
2022/06/25 10:55:34;;;;;;;8.68;5.30;;;13.90;99.90;;;;;;5026460;28;20078;-68
2022/06/25 10:58:13;;;;;;;11.68;5.40;;;13.90;99.90;;;;;;5022071;28;20038;-68
2022/06/25 11:00:57;;;;;;;7.22;4.78;;;13.80;99.90;;;;;;5016959;28;20030;-68
2022/06/25 11:03:39;;;;;;;9.40;5.35;;;13.70;99.90;;;;;;5045339;28;20462;-68
2022/06/25 11:06:36;;;;;;;7.85;5.13;;;13.70;99.90;;;;;;5018291;28;20033;-68
2022/06/25 11:09:13;;;;;;;9.65;5.55;;;13.70;99.90;;;;;;5026725;28;20095;-68
2022/06/25 11:11:42;;;;;;;12.20;5.95;;;13.70;99.90;;;;;;5033787;28;20021;-68
2022/06/25 11:14:22;;;;;;;8.52;5.20;;;13.70;99.90;;;;;;5031103;28;20020;-68
2022/06/25 11:16:51;;;;;;;8.93;5.53;;;13.60;99.90;;;;;;5027085;28;20042;-67
2022/06/25 11:19:21;;;;;;;7.75;4.68;;;13.60;99.90;;;;;;5030253;28;20363;-68
2022/06/25 11:21:49;;;;;;;7.03;4.68;;;13.60;99.90;;;;;;5038510;28;20040;-68
2022/06/25 11:24:20;;;;;;;13.88;5.32;;;13.60;99.90;;;;;;5051957;28;20705;-68
2022/06/25 11:29:46;;;;;;;8.82;5.07;;;13.70;99.90;;;;;;5037664;28;20043;-68
2022/06/25 11:32:19;;;;;;;8.50;5.45;;;13.70;99.90;;;;;;5030684;28;20045;-68
2022/06/25 11:34:55;;;;;;;9.60;6.30;;;13.60;99.90;;;;;;5025659;28;20032;-68
2022/06/25 11:37:23;;;;;;;7.95;4.75;;;13.60;99.90;;;;;;5027321;28;20030;-68
2022/06/25 11:39:51;;;;;;;6.22;4.20;;;13.50;99.90;;;;;;5049402;28;20037;-68
2022/06/25 11:42:19;;;;;;;11.25;5.55;;;13.50;99.90;;;;;;5014034;28;20605;-67
2022/06/25 11:44:48;;;;;;;7.55;4.60;;;13.60;99.90;;;;;;5023633;28;20470;-68
2022/06/25 11:47:21;;;;;;;10.80;5.55;;;13.60;99.90;;;;;;5017694;28;20069;-67
2022/06/25 11:49:48;;;;;;;9.48;4.90;;;13.60;99.90;;;;;;5042565;28;20022;-67
2022/06/25 11:52:18;;;;;;;8.75;5.68;;;13.60;99.90;;;;;;5023802;28;20108;-67
2022/06/25 11:54:48;;;;;;;7.72;4.88;;;13.60;99.90;;;;;;5033210;28;20410;-67
2022/06/25 11:57:21;;;;;;;6.35;3.97;;;13.50;99.90;;;;;;5031101;28;20028;-69
2022/06/25 11:59:53;;;;;;;8.05;5.45;;;13.50;99.90;;;;;;5019964;28;20052;-67
2022/06/25 12:02:22;;;;;;;11.18;4.97;;;13.50;99.90;;;;;;5030782;28;20483;-67
2022/06/25 12:04:59;;;;;;;8.52;5.70;;;13.40;99.90;;;;;;5023442;28;20018;-67
2022/06/25 12:07:32;;;;;;;8.80;5.28;;;13.40;99.90;;;;;;5030795;28;20033;-67
2022/06/25 12:10:02;;;;;;;10.23;5.20;;;13.40;99.90;;;;;;5030209;28;20109;-67
2022/06/25 12:12:30;;;;;;;8.48;5.70;;;13.40;99.90;;;;;;5037094;28;20025;-68
2022/06/25 12:15:03;;;;;;;7.68;5.45;;;13.40;99.90;;;;;;5032807;28;20037;-67
2022/06/25 12:17:35;;;;;;;7.25;5.10;;;13.20;99.90;;;;;;5025451;28;20033;-68
2022/06/25 12:20:11;;;;;;;8.35;5.20;;;13.10;99.90;;;;;;5026278;28;20544;-67
2022/06/25 12:22:50;;;;;;;8.13;5.70;;;13.10;99.90;;;;;;5028460;28;20030;-67
2022/06/25 12:25:31;;;;;;;8.90;6.43;;;13.10;99.90;;;;;;5026423;28;20026;-68
2022/06/25 12:27:59;;;;;;;9.13;6.07;;;13.10;99.90;;;;;;5028417;28;20061;-68
2022/06/25 12:30:28;;;;;;;8.65;6.15;;;13.10;99.90;;;;;;5033692;28;20203;-68
2022/06/25 12:33:03;;;;;;;11.52;7.20;;;13.10;99.90;;;;;;5032240;28;20063;-68
2022/06/25 12:35:31;;;;;;;10.93;7.47;;;13.20;99.90;;;;;;5033706;28;20028;-68
2022/06/25 12:38:10;;;;;;;10.90;7.00;;;13.10;99.90;;;;;;5026273;28;20485;-68
2022/06/25 12:40:42;;;;;;;10.38;7.20;;;13.00;99.90;;;;;;5032785;28;20350;-68
2022/06/25 12:43:12;;;;;;;11.43;7.97;;;12.90;99.90;;;;;;5025301;28;20091;-68
2022/06/25 12:45:41;;;;;;;11.23;7.72;;;12.70;99.90;;;;;;5030085;28;20025;-68
2022/06/25 12:48:09;;;;;;;12.38;6.60;;;12.70;99.90;;;;;;5027856;28;20482;-68
2022/06/25 12:50:38;;;;;;;12.38;5.97;;;12.70;99.90;;;;;;5031177;28;20029;-68
2022/06/25 12:53:12;;;;;;;14.07;6.63;;;12.50;99.90;;;;;;5023839;28;20639;-68
2022/06/25 12:55:41;;;;;;;11.77;6.95;;;12.60;99.90;;;;;;5027361;28;20041;-67
2022/06/25 12:58:12;;;;;;;11.52;7.20;;;12.60;99.90;;;;;;5032465;28;20036;-67
2022/06/25 13:00:43;;;;;;;14.27;7.70;;;12.60;99.90;;;;;;5022745;28;20071;-67
2022/06/25 13:03:10;;;;;;;12.77;7.55;;;12.60;99.90;;;;;;5027983;28;20030;-67
2022/06/25 13:05:38;;;;;;;10.85;6.88;;;12.60;99.90;;;;;;5030867;28;20094;-67
2022/06/25 13:08:06;;;;;;;13.68;7.65;;;12.30;99.90;;;;;;5024663;28;20156;-68
2022/06/25 13:10:33;;;;;;;11.38;7.82;;;12.30;99.90;;;;;;5026854;28;20034;-67
2022/06/25 13:13:03;;;;;;;14.10;7.35;;;12.30;99.90;;;;;;5031050;28;20025;-67
2022/06/25 13:15:30;;;;;;;13.65;8.05;;;12.40;99.90;;;;;;5025820;28;20021;-67
2022/06/25 13:17:58;;;;;;;10.05;7.60;;;12.40;99.90;;;;;;5024913;28;20029;-67
2022/06/25 13:20:25;;;;;;;11.93;7.60;;;12.40;99.90;;;;;;5026158;28;20030;-68